sensor_id;sensor_type;location;lat;lon;timestamp;P1;durP1;ratioP1;P2;durP2;ratioP2
3095;SDS011;1558;42.700;23.360;2024-03-23T00:54:54;28.70;;;20.53;;
3095;SDS011;1558;42.700;23.360;2024-03-23T00:57:20;29.50;;;21.40;;
3095;SDS011;1558;42.700;23.360;2024-03-23T00:59:47;28.00;;;21.33;;
3095;SDS011;1558;42.700;23.360;2024-03-23T01:02:14;25.53;;;18.43;;
3095;SDS011;1558;42.700;23.360;2024-03-23T01:04:41;30.00;;;20.33;;
3095;SDS011;1558;42.700;23.360;2024-03-23T01:07:07;34.27;;;20.60;;
3095;SDS011;1558;42.700;23.360;2024-03-23T01:09:34;30.60;;;20.20;;
3095;SDS011;1558;42.700;23.360;2024-03-23T01:12:02;33.57;;;21.17;;
3095;SDS011;1558;42.700;23.360;2024-03-23T01:14:29;32.27;;;21.73;;
3095;SDS011;1558;42.700;23.360;2024-03-23T01:16:56;31.77;;;20.13;;
3095;SDS011;1558;42.700;23.360;2024-03-23T01:19:23;34.57;;;20.93;;
3095;SDS011;1558;42.700;23.360;2024-03-23T01:21:49;29.70;;;20.63;;
3095;SDS011;1558;42.700;23.360;2024-03-23T01:24:16;29.60;;;20.63;;
3095;SDS011;1558;42.700;23.360;2024-03-23T01:26:42;29.53;;;20.23;;
3095;SDS011;1558;42.700;23.360;2024-03-23T01:29:11;30.67;;;19.57;;
3095;SDS011;1558;42.700;23.360;2024-03-23T01:31:37;27.43;;;19.97;;
3095;SDS011;1558;42.700;23.360;2024-03-23T01:34:04;30.57;;;20.53;;
3095;SDS011;1558;42.700;23.360;2024-03-23T01:36:30;31.27;;;21.03;;
3095;SDS011;1558;42.700;23.360;2024-03-23T01:38:57;23.30;;;16.30;;
3095;SDS011;1558;42.700;23.360;2024-03-23T01:41:23;19.97;;;15.07;;
3095;SDS011;1558;42.700;23.360;2024-03-23T01:43:51;19.13;;;14.57;;
3095;SDS011;1558;42.700;23.360;2024-03-23T01:46:18;19.57;;;15.63;;
3095;SDS011;1558;42.700;23.360;2024-03-23T01:48:45;19.03;;;15.00;;
3095;SDS011;1558;42.700;23.360;2024-03-23T01:51:12;18.40;;;15.63;;
3095;SDS011;1558;42.700;23.360;2024-03-23T01:53:40;18.73;;;15.40;;
3095;SDS011;1558;42.700;23.360;2024-03-23T01:56:06;20.70;;;14.57;;
3095;SDS011;1558;42.700;23.360;2024-03-23T01:58:33;19.13;;;15.87;;
3095;SDS011;1558;42.700;23.360;2024-03-23T02:00:59;21.33;;;16.23;;
3095;SDS011;1558;42.700;23.360;2024-03-23T02:03:28;18.60;;;15.57;;
3095;SDS011;1558;42.700;23.360;2024-03-23T02:05:54;18.53;;;15.37;;
3095;SDS011;1558;42.700;23.360;2024-03-23T02:08:22;20.10;;;15.90;;
3095;SDS011;1558;42.700;23.360;2024-03-23T02:10:49;19.63;;;15.20;;
3095;SDS011;1558;42.700;23.360;2024-03-23T02:13:17;22.67;;;15.03;;
3095;SDS011;1558;42.700;23.360;2024-03-23T02:15:44;21.50;;;16.47;;
3095;SDS011;1558;42.700;23.360;2024-03-23T02:18:12;18.23;;;15.60;;
3095;SDS011;1558;42.700;23.360;2024-03-23T02:20:39;20.40;;;15.80;;
3095;SDS011;1558;42.700;23.360;2024-03-23T02:23:13;23.93;;;17.10;;
3095;SDS011;1558;42.700;23.360;2024-03-23T02:25:40;26.83;;;17.10;;
3095;SDS011;1558;42.700;23.360;2024-03-23T02:28:07;21.37;;;16.43;;
3095;SDS011;1558;42.700;23.360;2024-03-23T02:30:34;26.30;;;17.50;;
3095;SDS011;1558;42.700;23.360;2024-03-23T02:33:01;21.70;;;16.93;;
3095;SDS011;1558;42.700;23.360;2024-03-23T02:35:27;23.70;;;16.37;;
3095;SDS011;1558;42.700;23.360;2024-03-23T02:37:55;25.77;;;17.70;;
3095;SDS011;1558;42.700;23.360;2024-03-23T02:40:24;20.37;;;15.97;;
3095;SDS011;1558;42.700;23.360;2024-03-23T02:42:51;24.50;;;16.93;;
3095;SDS011;1558;42.700;23.360;2024-03-23T02:45:18;23.30;;;17.27;;
3095;SDS011;1558;42.700;23.360;2024-03-23T02:47:45;22.63;;;16.90;;
3095;SDS011;1558;42.700;23.360;2024-03-23T02:50:11;20.83;;;16.27;;
3095;SDS011;1558;42.700;23.360;2024-03-23T02:52:40;19.97;;;16.40;;
3095;SDS011;1558;42.700;23.360;2024-03-23T02:55:06;18.77;;;15.30;;
3095;SDS011;1558;42.700;23.360;2024-03-23T02:57:35;22.47;;;17.03;;
3095;SDS011;1558;42.700;23.360;2024-03-23T03:00:01;19.30;;;16.10;;
3095;SDS011;1558;42.700;23.360;2024-03-23T03:02:29;21.33;;;16.97;;
3095;SDS011;1558;42.700;23.360;2024-03-23T03:04:55;20.80;;;16.40;;
3095;SDS011;1558;42.700;23.360;2024-03-23T03:07:22;20.73;;;14.73;;
3095;SDS011;1558;42.700;23.360;2024-03-23T03:09:48;18.13;;;13.83;;
3095;SDS011;1558;42.700;23.360;2024-03-23T03:12:16;14.17;;;11.80;;
3095;SDS011;1558;42.700;23.360;2024-03-23T03:14:43;15.77;;;11.80;;
3095;SDS011;1558;42.700;23.360;2024-03-23T03:17:10;16.93;;;12.93;;
3095;SDS011;1558;42.700;23.360;2024-03-23T03:19:36;24.00;;;14.13;;
3095;SDS011;1558;42.700;23.360;2024-03-23T03:22:04;21.07;;;15.40;;
3095;SDS011;1558;42.700;23.360;2024-03-23T03:24:30;20.57;;;14.53;;
3095;SDS011;1558;42.700;23.360;2024-03-23T03:26:57;20.60;;;14.20;;
3095;SDS011;1558;42.700;23.360;2024-03-23T03:29:24;19.90;;;15.23;;
3095;SDS011;1558;42.700;23.360;2024-03-23T03:31:52;19.20;;;13.43;;
3095;SDS011;1558;42.700;23.360;2024-03-23T03:34:18;20.40;;;13.97;;
3095;SDS011;1558;42.700;23.360;2024-03-23T03:36:45;18.13;;;13.87;;
3095;SDS011;1558;42.700;23.360;2024-03-23T03:39:11;17.73;;;13.40;;
3095;SDS011;1558;42.700;23.360;2024-03-23T03:41:38;16.60;;;11.30;;
3095;SDS011;1558;42.700;23.360;2024-03-23T03:44:05;13.07;;;11.30;;
3095;SDS011;1558;42.700;23.360;2024-03-23T03:46:32;13.00;;;11.50;;
3095;SDS011;1558;42.700;23.360;2024-03-23T03:49:00;15.83;;;12.37;;
3095;SDS011;1558;42.700;23.360;2024-03-23T03:51:27;19.73;;;11.77;;
3095;SDS011;1558;42.700;23.360;2024-03-23T03:53:53;13.47;;;10.57;;
3095;SDS011;1558;42.700;23.360;2024-03-23T03:56:20;13.93;;;10.63;;
3095;SDS011;1558;42.700;23.360;2024-03-23T03:58:47;12.17;;;10.43;;
3095;SDS011;1558;42.700;23.360;2024-03-23T04:01:15;14.63;;;10.43;;
3095;SDS011;1558;42.700;23.360;2024-03-23T04:03:41;13.20;;;11.00;;
3095;SDS011;1558;42.700;23.360;2024-03-23T04:06:10;11.53;;;10.13;;
3095;SDS011;1558;42.700;23.360;2024-03-23T04:08:36;15.33;;;11.17;;
3095;SDS011;1558;42.700;23.360;2024-03-23T04:11:03;14.30;;;10.50;;
3095;SDS011;1558;42.700;23.360;2024-03-23T04:13:29;16.67;;;10.80;;
3095;SDS011;1558;42.700;23.360;2024-03-23T04:15:57;15.57;;;10.67;;
3095;SDS011;1558;42.700;23.360;2024-03-23T04:18:23;11.27;;;9.37;;
3095;SDS011;1558;42.700;23.360;2024-03-23T04:20:50;14.33;;;11.17;;
3095;SDS011;1558;42.700;23.360;2024-03-23T04:23:17;14.57;;;11.13;;
3095;SDS011;1558;42.700;23.360;2024-03-23T04:25:44;17.73;;;12.07;;
3095;SDS011;1558;42.700;23.360;2024-03-23T04:28:10;14.60;;;11.33;;
3095;SDS011;1558;42.700;23.360;2024-03-23T04:30:38;15.97;;;11.50;;
3095;SDS011;1558;42.700;23.360;2024-03-23T04:33:04;14.50;;;10.73;;
3095;SDS011;1558;42.700;23.360;2024-03-23T04:35:31;16.50;;;12.03;;
3095;SDS011;1558;42.700;23.360;2024-03-23T04:37:57;16.97;;;11.10;;
3095;SDS011;1558;42.700;23.360;2024-03-23T04:40:26;15.20;;;10.37;;
3095;SDS011;1558;42.700;23.360;2024-03-23T04:42:53;18.27;;;11.30;;
3095;SDS011;1558;42.700;23.360;2024-03-23T04:45:21;16.10;;;9.93;;
3095;SDS011;1558;42.700;23.360;2024-03-23T04:47:48;11.83;;;10.10;;
3095;SDS011;1558;42.700;23.360;2024-03-23T04:50:15;18.37;;;11.70;;
3095;SDS011;1558;42.700;23.360;2024-03-23T04:52:42;26.20;;;15.27;;
3095;SDS011;1558;42.700;23.360;2024-03-23T04:55:09;19.47;;;12.53;;
3095;SDS011;1558;42.700;23.360;2024-03-23T04:57:38;22.13;;;13.00;;
3095;SDS011;1558;42.700;23.360;2024-03-23T05:00:05;21.73;;;13.23;;
3095;SDS011;1558;42.700;23.360;2024-03-23T05:02:42;19.97;;;13.00;;
3095;SDS011;1558;42.700;23.360;2024-03-23T05:05:10;21.30;;;12.83;;
3095;SDS011;1558;42.700;23.360;2024-03-23T05:07:36;22.10;;;14.10;;
3095;SDS011;1558;42.700;23.360;2024-03-23T05:10:04;20.50;;;13.97;;
3095;SDS011;1558;42.700;23.360;2024-03-23T05:12:31;20.90;;;13.53;;
3095;SDS011;1558;42.700;23.360;2024-03-23T05:14:59;25.30;;;15.03;;
3095;SDS011;1558;42.700;23.360;2024-03-23T05:17:25;21.30;;;12.73;;
3095;SDS011;1558;42.700;23.360;2024-03-23T05:19:55;29.47;;;13.70;;
3095;SDS011;1558;42.700;23.360;2024-03-23T05:22:22;15.20;;;12.17;;
3095;SDS011;1558;42.700;23.360;2024-03-23T05:24:49;13.10;;;11.10;;
3095;SDS011;1558;42.700;23.360;2024-03-23T05:27:16;15.03;;;11.30;;
3095;SDS011;1558;42.700;23.360;2024-03-23T05:29:43;12.43;;;11.10;;
3095;SDS011;1558;42.700;23.360;2024-03-23T05:32:10;16.43;;;10.73;;
3095;SDS011;1558;42.700;23.360;2024-03-23T05:34:37;15.80;;;11.00;;
3095;SDS011;1558;42.700;23.360;2024-03-23T05:37:03;14.70;;;11.50;;
3095;SDS011;1558;42.700;23.360;2024-03-23T05:39:31;13.90;;;10.73;;
3095;SDS011;1558;42.700;23.360;2024-03-23T05:41:57;15.13;;;10.83;;
3095;SDS011;1558;42.700;23.360;2024-03-23T05:44:24;12.93;;;11.33;;
3095;SDS011;1558;42.700;23.360;2024-03-23T05:46:50;15.97;;;12.60;;
3095;SDS011;1558;42.700;23.360;2024-03-23T05:49:19;13.10;;;11.03;;
3095;SDS011;1558;42.700;23.360;2024-03-23T05:51:46;15.67;;;11.40;;
3095;SDS011;1558;42.700;23.360;2024-03-23T05:54:14;12.60;;;10.50;;
3095;SDS011;1558;42.700;23.360;2024-03-23T05:56:40;14.07;;;11.93;;
3095;SDS011;1558;42.700;23.360;2024-03-23T05:59:07;16.07;;;12.47;;
3095;SDS011;1558;42.700;23.360;2024-03-23T06:01:34;19.30;;;12.10;;
3095;SDS011;1558;42.700;23.360;2024-03-23T06:04:01;17.07;;;12.87;;
3095;SDS011;1558;42.700;23.360;2024-03-23T06:06:29;17.40;;;11.87;;
3095;SDS011;1558;42.700;23.360;2024-03-23T06:08:56;15.63;;;11.70;;
3095;SDS011;1558;42.700;23.360;2024-03-23T06:11:24;17.07;;;12.50;;
3095;SDS011;1558;42.700;23.360;2024-03-23T06:13:52;18.17;;;13.47;;
3095;SDS011;1558;42.700;23.360;2024-03-23T06:16:19;17.03;;;13.40;;
3095;SDS011;1558;42.700;23.360;2024-03-23T06:18:48;17.70;;;13.63;;
3095;SDS011;1558;42.700;23.360;2024-03-23T06:21:16;20.17;;;15.63;;
3095;SDS011;1558;42.700;23.360;2024-03-23T06:23:43;18.67;;;14.83;;
3095;SDS011;1558;42.700;23.360;2024-03-23T06:26:17;17.83;;;14.87;;
3095;SDS011;1558;42.700;23.360;2024-03-23T06:28:44;17.57;;;15.17;;
3095;SDS011;1558;42.700;23.360;2024-03-23T06:31:11;21.47;;;15.77;;
3095;SDS011;1558;42.700;23.360;2024-03-23T06:33:37;18.40;;;15.17;;
3095;SDS011;1558;42.700;23.360;2024-03-23T06:36:05;20.97;;;16.00;;
3095;SDS011;1558;42.700;23.360;2024-03-23T06:38:34;22.63;;;15.60;;
3095;SDS011;1558;42.700;23.360;2024-03-23T06:41:03;18.33;;;16.10;;
3095;SDS011;1558;42.700;23.360;2024-03-23T06:43:30;16.73;;;14.90;;
3095;SDS011;1558;42.700;23.360;2024-03-23T06:45:57;21.77;;;16.00;;
3095;SDS011;1558;42.700;23.360;2024-03-23T06:48:23;18.70;;;15.67;;
3095;SDS011;1558;42.700;23.360;2024-03-23T06:50:55;21.97;;;16.40;;
3095;SDS011;1558;42.700;23.360;2024-03-23T06:53:22;22.70;;;16.90;;
3095;SDS011;1558;42.700;23.360;2024-03-23T06:55:52;20.80;;;16.60;;
3095;SDS011;1558;42.700;23.360;2024-03-23T06:58:21;22.03;;;17.87;;
3095;SDS011;1558;42.700;23.360;2024-03-23T07:00:50;18.83;;;16.87;;
3095;SDS011;1558;42.700;23.360;2024-03-23T07:03:16;23.10;;;17.92;;
3095;SDS011;1558;42.700;23.360;2024-03-23T07:05:44;22.45;;;17.80;;
3095;SDS011;1558;42.700;23.360;2024-03-23T07:08:11;20.55;;;18.00;;
3095;SDS011;1558;42.700;23.360;2024-03-23T07:10:44;22.85;;;19.25;;
3095;SDS011;1558;42.700;23.360;2024-03-23T07:13:10;19.85;;;17.50;;
3095;SDS011;1558;42.700;23.360;2024-03-23T07:15:38;25.80;;;18.98;;
3095;SDS011;1558;42.700;23.360;2024-03-23T07:18:05;22.60;;;18.05;;
3095;SDS011;1558;42.700;23.360;2024-03-23T07:20:32;19.48;;;17.55;;
3095;SDS011;1558;42.700;23.360;2024-03-23T07:22:58;20.95;;;18.42;;
3095;SDS011;1558;42.700;23.360;2024-03-23T07:25:25;23.05;;;18.15;;
3095;SDS011;1558;42.700;23.360;2024-03-23T07:27:53;18.75;;;16.95;;
3095;SDS011;1558;42.700;23.360;2024-03-23T07:30:20;18.83;;;16.77;;
3095;SDS011;1558;42.700;23.360;2024-03-23T07:32:48;25.80;;;18.92;;
3095;SDS011;1558;42.700;23.360;2024-03-23T07:35:15;20.00;;;17.88;;
3095;SDS011;1558;42.700;23.360;2024-03-23T07:37:41;18.90;;;16.88;;
3095;SDS011;1558;42.700;23.360;2024-03-23T07:40:09;21.23;;;17.45;;
3095;SDS011;1558;42.700;23.360;2024-03-23T07:42:37;18.45;;;16.35;;
3095;SDS011;1558;42.700;23.360;2024-03-23T07:45:04;18.50;;;15.50;;
3095;SDS011;1558;42.700;23.360;2024-03-23T07:47:31;18.85;;;15.35;;
3095;SDS011;1558;42.700;23.360;2024-03-23T07:50:00;16.55;;;14.27;;
3095;SDS011;1558;42.700;23.360;2024-03-23T07:52:27;21.75;;;15.13;;
3095;SDS011;1558;42.700;23.360;2024-03-23T07:54:56;16.27;;;14.43;;
3095;SDS011;1558;42.700;23.360;2024-03-23T07:57:22;20.77;;;15.07;;
3095;SDS011;1558;42.700;23.360;2024-03-23T07:59:49;20.35;;;16.27;;
3095;SDS011;1558;42.700;23.360;2024-03-23T08:02:15;19.95;;;16.35;;
3095;SDS011;1558;42.700;23.360;2024-03-23T08:04:42;18.38;;;14.00;;
3095;SDS011;1558;42.700;23.360;2024-03-23T08:07:10;14.82;;;13.27;;
3095;SDS011;1558;42.700;23.360;2024-03-23T08:09:37;15.23;;;13.50;;
3095;SDS011;1558;42.700;23.360;2024-03-23T08:12:04;16.27;;;13.63;;
3095;SDS011;1558;42.700;23.360;2024-03-23T08:14:32;24.42;;;15.20;;
3095;SDS011;1558;42.700;23.360;2024-03-23T08:16:58;16.88;;;15.20;;
3095;SDS011;1558;42.700;23.360;2024-03-23T08:19:25;16.33;;;14.77;;
3095;SDS011;1558;42.700;23.360;2024-03-23T08:21:51;17.08;;;14.20;;
3095;SDS011;1558;42.700;23.360;2024-03-23T08:24:21;15.95;;;14.35;;
3095;SDS011;1558;42.700;23.360;2024-03-23T08:26:47;17.98;;;14.38;;
3095;SDS011;1558;42.700;23.360;2024-03-23T08:29:14;17.88;;;15.60;;
3095;SDS011;1558;42.700;23.360;2024-03-23T08:31:40;19.42;;;14.00;;
3095;SDS011;1558;42.700;23.360;2024-03-23T08:34:07;15.68;;;14.15;;
3095;SDS011;1558;42.700;23.360;2024-03-23T08:36:33;15.82;;;14.32;;
3095;SDS011;1558;42.700;23.360;2024-03-23T08:39:00;16.23;;;14.52;;
3095;SDS011;1558;42.700;23.360;2024-03-23T08:41:28;16.90;;;13.85;;
3095;SDS011;1558;42.700;23.360;2024-03-23T08:43:55;16.35;;;13.50;;
3095;SDS011;1558;42.700;23.360;2024-03-23T08:46:22;15.35;;;13.75;;
3095;SDS011;1558;42.700;23.360;2024-03-23T08:48:49;16.10;;;13.05;;
3095;SDS011;1558;42.700;23.360;2024-03-23T08:51:16;15.50;;;12.30;;
3095;SDS011;1558;42.700;23.360;2024-03-23T08:53:43;16.45;;;14.85;;
3095;SDS011;1558;42.700;23.360;2024-03-23T08:56:11;14.45;;;13.10;;
3095;SDS011;1558;42.700;23.360;2024-03-23T08:58:39;14.88;;;13.00;;
3095;SDS011;1558;42.700;23.360;2024-03-23T09:01:06;14.35;;;12.70;;
3095;SDS011;1558;42.700;23.360;2024-03-23T09:03:34;14.20;;;12.38;;
3095;SDS011;1558;42.700;23.360;2024-03-23T09:06:00;15.02;;;12.77;;
3095;SDS011;1558;42.700;23.360;2024-03-23T09:08:29;14.63;;;12.50;;
3095;SDS011;1558;42.700;23.360;2024-03-23T09:10:55;16.02;;;12.98;;
3095;SDS011;1558;42.700;23.360;2024-03-23T09:13:22;13.73;;;12.25;;
3095;SDS011;1558;42.700;23.360;2024-03-23T09:15:50;17.42;;;12.50;;
3095;SDS011;1558;42.700;23.360;2024-03-23T09:18:21;14.45;;;12.52;;
3095;SDS011;1558;42.700;23.360;2024-03-23T09:20:48;14.35;;;12.57;;
3095;SDS011;1558;42.700;23.360;2024-03-23T09:23:15;12.95;;;11.75;;
3095;SDS011;1558;42.700;23.360;2024-03-23T09:25:41;14.23;;;12.00;;
3095;SDS011;1558;42.700;23.360;2024-03-23T09:28:08;18.35;;;14.25;;
3095;SDS011;1558;42.700;23.360;2024-03-23T09:30:34;19.08;;;15.02;;
3095;SDS011;1558;42.700;23.360;2024-03-23T09:33:08;16.88;;;13.50;;
3095;SDS011;1558;42.700;23.360;2024-03-23T09:35:36;14.30;;;12.55;;
3095;SDS011;1558;42.700;23.360;2024-03-23T09:38:04;14.73;;;12.73;;
3095;SDS011;1558;42.700;23.360;2024-03-23T09:40:30;14.23;;;12.82;;
3095;SDS011;1558;42.700;23.360;2024-03-23T09:42:58;16.63;;;12.85;;
3095;SDS011;1558;42.700;23.360;2024-03-23T09:45:27;13.18;;;11.95;;
3095;SDS011;1558;42.700;23.360;2024-03-23T09:47:54;15.23;;;12.05;;
3095;SDS011;1558;42.700;23.360;2024-03-23T09:50:23;14.43;;;12.77;;
3095;SDS011;1558;42.700;23.360;2024-03-23T09:52:50;13.70;;;12.32;;
3095;SDS011;1558;42.700;23.360;2024-03-23T09:55:17;16.52;;;14.27;;
3095;SDS011;1558;42.700;23.360;2024-03-23T09:57:44;13.52;;;12.13;;
3095;SDS011;1558;42.700;23.360;2024-03-23T10:00:11;15.77;;;12.52;;
3095;SDS011;1558;42.700;23.360;2024-03-23T10:02:41;14.40;;;12.50;;
3095;SDS011;1558;42.700;23.360;2024-03-23T10:05:19;16.88;;;12.73;;
3095;SDS011;1558;42.700;23.360;2024-03-23T10:07:50;14.15;;;12.90;;
3095;SDS011;1558;42.700;23.360;2024-03-23T10:10:16;14.63;;;13.10;;
3095;SDS011;1558;42.700;23.360;2024-03-23T10:12:44;13.70;;;12.27;;
3095;SDS011;1558;42.700;23.360;2024-03-23T10:15:15;15.32;;;11.90;;
3095;SDS011;1558;42.700;23.360;2024-03-23T10:17:45;16.85;;;11.88;;
3095;SDS011;1558;42.700;23.360;2024-03-23T10:20:11;14.02;;;12.57;;
3095;SDS011;1558;42.700;23.360;2024-03-23T10:22:39;16.45;;;13.90;;
3095;SDS011;1558;42.700;23.360;2024-03-23T10:25:10;15.43;;;12.20;;
3095;SDS011;1558;42.700;23.360;2024-03-23T10:27:39;12.60;;;11.45;;
3095;SDS011;1558;42.700;23.360;2024-03-23T10:30:08;13.07;;;11.55;;
3095;SDS011;1558;42.700;23.360;2024-03-23T10:32:37;13.50;;;12.15;;
3095;SDS011;1558;42.700;23.360;2024-03-23T10:35:16;14.32;;;12.82;;
3095;SDS011;1558;42.700;23.360;2024-03-23T10:37:45;12.25;;;11.10;;
3095;SDS011;1558;42.700;23.360;2024-03-23T10:40:15;14.80;;;11.52;;
3095;SDS011;1558;42.700;23.360;2024-03-23T10:42:43;16.20;;;12.45;;
3095;SDS011;1558;42.700;23.360;2024-03-23T10:45:10;15.10;;;12.02;;
3095;SDS011;1558;42.700;23.360;2024-03-23T10:47:37;15.30;;;11.40;;
3095;SDS011;1558;42.700;23.360;2024-03-23T10:50:04;14.52;;;11.73;;
3095;SDS011;1558;42.700;23.360;2024-03-23T10:52:32;12.18;;;10.98;;
3095;SDS011;1558;42.700;23.360;2024-03-23T10:54:59;13.88;;;11.18;;
3095;SDS011;1558;42.700;23.360;2024-03-23T10:57:34;14.88;;;11.05;;
3095;SDS011;1558;42.700;23.360;2024-03-23T11:00:04;12.43;;;11.18;;
3095;SDS011;1558;42.700;23.360;2024-03-23T11:02:32;11.90;;;10.70;;
3095;SDS011;1558;42.700;23.360;2024-03-23T11:04:58;12.38;;;11.07;;
3095;SDS011;1558;42.700;23.360;2024-03-23T11:07:29;10.93;;;9.80;;
3095;SDS011;1558;42.700;23.360;2024-03-23T11:09:56;12.40;;;10.88;;
3095;SDS011;1558;42.700;23.360;2024-03-23T11:12:25;13.27;;;11.20;;
3095;SDS011;1558;42.700;23.360;2024-03-23T11:14:54;17.75;;;12.02;;
3095;SDS011;1558;42.700;23.360;2024-03-23T11:17:24;17.83;;;11.68;;
3095;SDS011;1558;42.700;23.360;2024-03-23T11:19:54;11.38;;;10.27;;
3095;SDS011;1558;42.700;23.360;2024-03-23T11:22:37;10.60;;;9.55;;
3095;SDS011;1558;42.700;23.360;2024-03-23T11:25:14;11.15;;;9.38;;
3095;SDS011;1558;42.700;23.360;2024-03-23T11:27:43;10.57;;;8.68;;
3095;SDS011;1558;42.700;23.360;2024-03-23T11:30:15;10.25;;;9.00;;
3095;SDS011;1558;42.700;23.360;2024-03-23T11:32:43;12.07;;;8.93;;
3095;SDS011;1558;42.700;23.360;2024-03-23T11:35:10;11.30;;;8.82;;
3095;SDS011;1558;42.700;23.360;2024-03-23T11:38:01;9.48;;;8.57;;
3095;SDS011;1558;42.700;23.360;2024-03-23T11:40:30;9.65;;;8.18;;
3095;SDS011;1558;42.700;23.360;2024-03-23T11:42:58;10.90;;;7.90;;
3095;SDS011;1558;42.700;23.360;2024-03-23T11:45:27;10.25;;;8.68;;
3095;SDS011;1558;42.700;23.360;2024-03-23T11:48:02;10.48;;;8.50;;
3095;SDS011;1558;42.700;23.360;2024-03-23T11:50:32;9.82;;;8.82;;
3095;SDS011;1558;42.700;23.360;2024-03-23T11:53:07;9.52;;;8.02;;
3095;SDS011;1558;42.700;23.360;2024-03-23T11:55:39;8.98;;;7.90;;
3095;SDS011;1558;42.700;23.360;2024-03-23T11:58:08;13.10;;;8.55;;
3095;SDS011;1558;42.700;23.360;2024-03-23T12:00:35;9.25;;;8.15;;
3095;SDS011;1558;42.700;23.360;2024-03-23T12:03:03;12.73;;;8.38;;
3095;SDS011;1558;42.700;23.360;2024-03-23T12:05:30;9.63;;;8.70;;
3095;SDS011;1558;42.700;23.360;2024-03-23T12:10:43;13.02;;;8.55;;
3095;SDS011;1558;42.700;23.360;2024-03-23T12:13:14;11.00;;;8.48;;
3095;SDS011;1558;42.700;23.360;2024-03-23T12:15:44;9.10;;;8.30;;
3095;SDS011;1558;42.700;23.360;2024-03-23T12:18:11;10.43;;;8.23;;
3095;SDS011;1558;42.700;23.360;2024-03-23T12:20:38;9.90;;;7.13;;
3095;SDS011;1558;42.700;23.360;2024-03-23T12:23:06;8.95;;;8.10;;
3095;SDS011;1558;42.700;23.360;2024-03-23T12:25:34;8.45;;;7.55;;
3095;SDS011;1558;42.700;23.360;2024-03-23T12:28:01;11.07;;;8.38;;
3095;SDS011;1558;42.700;23.360;2024-03-23T12:30:28;9.93;;;8.38;;
3095;SDS011;1558;42.700;23.360;2024-03-23T12:32:56;9.85;;;7.70;;
3095;SDS011;1558;42.700;23.360;2024-03-23T12:35:22;8.57;;;6.65;;
3095;SDS011;1558;42.700;23.360;2024-03-23T12:37:50;7.72;;;6.85;;
3095;SDS011;1558;42.700;23.360;2024-03-23T12:40:16;8.52;;;7.03;;
3095;SDS011;1558;42.700;23.360;2024-03-23T12:42:43;8.70;;;7.03;;
3095;SDS011;1558;42.700;23.360;2024-03-23T12:45:09;8.18;;;7.30;;
3095;SDS011;1558;42.700;23.360;2024-03-23T12:47:36;9.57;;;7.40;;
3095;SDS011;1558;42.700;23.360;2024-03-23T12:50:04;11.60;;;7.78;;
3095;SDS011;1558;42.700;23.360;2024-03-23T12:52:32;10.18;;;7.97;;
3095;SDS011;1558;42.700;23.360;2024-03-23T12:54:58;8.23;;;7.43;;
3095;SDS011;1558;42.700;23.360;2024-03-23T12:57:26;8.80;;;7.22;;
3095;SDS011;1558;42.700;23.360;2024-03-23T12:59:52;10.27;;;6.93;;
3095;SDS011;1558;42.700;23.360;2024-03-23T13:02:20;11.40;;;7.50;;
3095;SDS011;1558;42.700;23.360;2024-03-23T13:04:46;8.15;;;7.00;;
3095;SDS011;1558;42.700;23.360;2024-03-23T13:07:18;8.57;;;6.93;;
3095;SDS011;1558;42.700;23.360;2024-03-23T13:09:45;9.00;;;6.88;;
3095;SDS011;1558;42.700;23.360;2024-03-23T13:12:12;9.75;;;7.30;;
3095;SDS011;1558;42.700;23.360;2024-03-23T13:14:38;7.53;;;6.35;;
3095;SDS011;1558;42.700;23.360;2024-03-23T13:17:06;7.78;;;6.20;;
3095;SDS011;1558;42.700;23.360;2024-03-23T13:19:33;9.85;;;6.55;;
3095;SDS011;1558;42.700;23.360;2024-03-23T13:22:00;7.50;;;6.50;;
3095;SDS011;1558;42.700;23.360;2024-03-23T13:24:28;7.60;;;5.53;;
3095;SDS011;1558;42.700;23.360;2024-03-23T13:26:55;10.82;;;6.63;;
3095;SDS011;1558;42.700;23.360;2024-03-23T13:29:22;9.55;;;6.13;;
3095;SDS011;1558;42.700;23.360;2024-03-23T13:31:51;10.40;;;7.18;;
3095;SDS011;1558;42.700;23.360;2024-03-23T13:34:17;5.80;;;5.00;;
3095;SDS011;1558;42.700;23.360;2024-03-23T13:36:45;7.05;;;4.65;;
3095;SDS011;1558;42.700;23.360;2024-03-23T13:39:12;3.20;;;2.90;;
3095;SDS011;1558;42.700;23.360;2024-03-23T13:41:42;4.18;;;3.78;;
3095;SDS011;1558;42.700;23.360;2024-03-23T13:44:09;3.63;;;3.13;;
3095;SDS011;1558;42.700;23.360;2024-03-23T13:46:38;3.88;;;3.50;;
3095;SDS011;1558;42.700;23.360;2024-03-23T13:49:04;5.60;;;3.10;;
3095;SDS011;1558;42.700;23.360;2024-03-23T13:51:32;2.60;;;2.40;;
3095;SDS011;1558;42.700;23.360;2024-03-23T13:53:59;2.13;;;1.92;;
3095;SDS011;1558;42.700;23.360;2024-03-23T13:56:27;2.88;;;2.05;;
3095;SDS011;1558;42.700;23.360;2024-03-23T13:58:55;2.55;;;2.03;;
3095;SDS011;1558;42.700;23.360;2024-03-23T14:01:23;2.53;;;2.33;;
3095;SDS011;1558;42.700;23.360;2024-03-23T14:03:50;3.55;;;2.05;;
3095;SDS011;1558;42.700;23.360;2024-03-23T14:06:17;2.78;;;2.10;;
3095;SDS011;1558;42.700;23.360;2024-03-23T14:08:43;7.05;;;6.03;;
3095;SDS011;1558;42.700;23.360;2024-03-23T14:11:10;2.07;;;1.87;;
3095;SDS011;1558;42.700;23.360;2024-03-23T14:13:36;2.70;;;2.30;;
3095;SDS011;1558;42.700;23.360;2024-03-23T14:16:06;2.40;;;2.20;;
3095;SDS011;1558;42.700;23.360;2024-03-23T14:18:32;3.53;;;2.13;;
3095;SDS011;1558;42.700;23.360;2024-03-23T14:21:00;3.10;;;1.90;;
3095;SDS011;1558;42.700;23.360;2024-03-23T14:23:26;2.30;;;1.90;;
3095;SDS011;1558;42.700;23.360;2024-03-23T14:25:54;2.23;;;1.90;;
3095;SDS011;1558;42.700;23.360;2024-03-23T14:28:21;3.40;;;2.10;;
3095;SDS011;1558;42.700;23.360;2024-03-23T14:30:49;2.70;;;1.70;;
3095;SDS011;1558;42.700;23.360;2024-03-23T14:33:17;8.67;;;5.13;;
3095;SDS011;1558;42.700;23.360;2024-03-23T14:35:51;3.50;;;2.40;;
3095;SDS011;1558;42.700;23.360;2024-03-23T14:38:18;3.03;;;2.13;;
3095;SDS011;1558;42.700;23.360;2024-03-23T14:40:48;2.77;;;2.57;;
3095;SDS011;1558;42.700;23.360;2024-03-23T14:43:15;3.33;;;2.40;;
3095;SDS011;1558;42.700;23.360;2024-03-23T14:45:49;6.00;;;2.87;;
3095;SDS011;1558;42.700;23.360;2024-03-23T14:48:33;3.67;;;2.67;;
3095;SDS011;1558;42.700;23.360;2024-03-23T14:51:01;5.37;;;3.20;;
3095;SDS011;1558;42.700;23.360;2024-03-23T14:53:30;5.00;;;2.80;;
3095;SDS011;1558;42.700;23.360;2024-03-23T14:55:57;4.13;;;2.97;;
3095;SDS011;1558;42.700;23.360;2024-03-23T14:58:25;3.70;;;2.63;;
3095;SDS011;1558;42.700;23.360;2024-03-23T15:00:52;4.77;;;3.13;;
3095;SDS011;1558;42.700;23.360;2024-03-23T15:03:19;3.10;;;2.10;;
3095;SDS011;1558;42.700;23.360;2024-03-23T15:05:54;3.10;;;2.20;;
3095;SDS011;1558;42.700;23.360;2024-03-23T15:08:21;3.80;;;2.60;;
3095;SDS011;1558;42.700;23.360;2024-03-23T15:11:07;3.60;;;2.77;;
3095;SDS011;1558;42.700;23.360;2024-03-23T15:13:33;5.27;;;3.37;;
3095;SDS011;1558;42.700;23.360;2024-03-23T15:16:00;5.40;;;3.27;;
3095;SDS011;1558;42.700;23.360;2024-03-23T15:18:26;6.90;;;3.47;;
3095;SDS011;1558;42.700;23.360;2024-03-23T15:20:56;9.40;;;3.87;;
3095;SDS011;1558;42.700;23.360;2024-03-23T15:23:23;5.23;;;4.27;;
3095;SDS011;1558;42.700;23.360;2024-03-23T15:25:53;5.40;;;3.60;;
3095;SDS011;1558;42.700;23.360;2024-03-23T15:28:20;7.27;;;4.50;;
3095;SDS011;1558;42.700;23.360;2024-03-23T15:30:47;6.63;;;4.70;;
3095;SDS011;1558;42.700;23.360;2024-03-23T15:33:13;4.33;;;3.60;;
3095;SDS011;1558;42.700;23.360;2024-03-23T15:35:40;4.17;;;3.60;;
3095;SDS011;1558;42.700;23.360;2024-03-23T15:38:08;4.20;;;3.40;;
3095;SDS011;1558;42.700;23.360;2024-03-23T15:40:35;5.37;;;4.30;;